sensor_id;sensor_type;location;lat;lon;timestamp;P1;durP1;ratioP1;P2;durP2;ratioP2
85175;SDS011;75548;42.444;27.488;2024-01-15T00:00:50;27.85;;;13.30;;
85175;SDS011;75548;42.444;27.488;2024-01-15T00:04:16;21.55;;;12.10;;
85175;SDS011;75548;42.444;27.488;2024-01-15T00:07:41;21.95;;;12.02;;
85175;SDS011;75548;42.444;27.488;2024-01-15T00:11:07;24.65;;;11.07;;
85175;SDS011;75548;42.444;27.488;2024-01-15T00:14:32;20.95;;;10.15;;
85175;SDS011;75548;42.444;27.488;2024-01-15T00:17:58;35.10;;;12.60;;
85175;SDS011;75548;42.444;27.488;2024-01-15T00:20:23;26.60;;;13.02;;
85175;SDS011;75548;42.444;27.488;2024-01-15T00:22:49;26.92;;;11.50;;
85175;SDS011;75548;42.444;27.488;2024-01-15T00:25:15;24.85;;;13.13;;
85175;SDS011;75548;42.444;27.488;2024-01-15T00:27:40;28.35;;;14.07;;
85175;SDS011;75548;42.444;27.488;2024-01-15T00:30:06;27.17;;;13.57;;
85175;SDS011;75548;42.444;27.488;2024-01-15T00:32:32;32.92;;;15.77;;
85175;SDS011;75548;42.444;27.488;2024-01-15T00:34:58;28.63;;;13.68;;
85175;SDS011;75548;42.444;27.488;2024-01-15T00:37:23;28.98;;;12.60;;
85175;SDS011;75548;42.444;27.488;2024-01-15T00:40:49;21.13;;;10.27;;
85175;SDS011;75548;42.444;27.488;2024-01-15T00:44:14;22.10;;;10.38;;
85175;SDS011;75548;42.444;27.488;2024-01-15T00:47:40;26.15;;;14.23;;
85175;SDS011;75548;42.444;27.488;2024-01-15T00:51:05;33.63;;;17.40;;
85175;SDS011;75548;42.444;27.488;2024-01-15T00:54:30;30.52;;;14.65;;
85175;SDS011;75548;42.444;27.488;2024-01-15T00:57:56;28.60;;;13.27;;
85175;SDS011;75548;42.444;27.488;2024-01-15T01:01:21;22.83;;;11.23;;
85175;SDS011;75548;42.444;27.488;2024-01-15T01:04:47;22.95;;;11.32;;
85175;SDS011;75548;42.444;27.488;2024-01-15T01:08:12;26.83;;;13.60;;
85175;SDS011;75548;42.444;27.488;2024-01-15T01:11:37;28.60;;;13.82;;
85175;SDS011;75548;42.444;27.488;2024-01-15T01:15:03;51.55;;;26.63;;
85175;SDS011;75548;42.444;27.488;2024-01-15T01:18:28;40.22;;;21.10;;
85175;SDS011;75548;42.444;27.488;2024-01-15T01:21:54;24.55;;;13.55;;
85175;SDS011;75548;42.444;27.488;2024-01-15T01:25:19;19.40;;;11.55;;
85175;SDS011;75548;42.444;27.488;2024-01-15T01:28:45;22.50;;;12.23;;
85175;SDS011;75548;42.444;27.488;2024-01-15T01:32:10;27.75;;;12.65;;
85175;SDS011;75548;42.444;27.488;2024-01-15T01:35:36;31.15;;;13.80;;
85175;SDS011;75548;42.444;27.488;2024-01-15T01:39:01;27.85;;;16.90;;
85175;SDS011;75548;42.444;27.488;2024-01-15T01:42:27;39.85;;;23.98;;
85175;SDS011;75548;42.444;27.488;2024-01-15T01:45:52;14.65;;;10.10;;
85175;SDS011;75548;42.444;27.488;2024-01-15T01:49:18;24.40;;;11.90;;
85175;SDS011;75548;42.444;27.488;2024-01-15T01:52:43;28.15;;;13.10;;
85175;SDS011;75548;42.444;27.488;2024-01-15T01:56:08;30.02;;;13.85;;
85175;SDS011;75548;42.444;27.488;2024-01-15T01:59:34;13.30;;;7.10;;
85175;SDS011;75548;42.444;27.488;2024-01-15T02:02:59;20.10;;;11.30;;
85175;SDS011;75548;42.444;27.488;2024-01-15T02:06:25;22.23;;;13.73;;
85175;SDS011;75548;42.444;27.488;2024-01-15T02:09:50;29.50;;;16.13;;
85175;SDS011;75548;42.444;27.488;2024-01-15T02:13:16;25.73;;;13.93;;
85175;SDS011;75548;42.444;27.488;2024-01-15T02:16:41;29.88;;;7.22;;
85175;SDS011;75548;42.444;27.488;2024-01-15T02:20:06;28.08;;;14.05;;
85175;SDS011;75548;42.444;27.488;2024-01-15T02:23:32;26.52;;;12.45;;
85175;SDS011;75548;42.444;27.488;2024-01-15T02:26:57;27.70;;;11.82;;
85175;SDS011;75548;42.444;27.488;2024-01-15T02:30:23;31.65;;;20.42;;
85175;SDS011;75548;42.444;27.488;2024-01-15T02:33:48;26.75;;;17.13;;
85175;SDS011;75548;42.444;27.488;2024-01-15T02:37:14;23.25;;;13.70;;
85175;SDS011;75548;42.444;27.488;2024-01-15T02:40:39;20.27;;;12.07;;
85175;SDS011;75548;42.444;27.488;2024-01-15T02:44:04;24.30;;;12.15;;
85175;SDS011;75548;42.444;27.488;2024-01-15T02:47:30;20.15;;;10.55;;
85175;SDS011;75548;42.444;27.488;2024-01-15T02:50:55;22.70;;;12.63;;
85175;SDS011;75548;42.444;27.488;2024-01-15T02:54:21;19.48;;;10.90;;
85175;SDS011;75548;42.444;27.488;2024-01-15T02:57:46;21.55;;;9.63;;
85175;SDS011;75548;42.444;27.488;2024-01-15T03:01:12;12.43;;;9.45;;
85175;SDS011;75548;42.444;27.488;2024-01-15T03:04:37;16.20;;;9.93;;
85175;SDS011;75548;42.444;27.488;2024-01-15T03:08:02;22.52;;;10.35;;
85175;SDS011;75548;42.444;27.488;2024-01-15T03:11:28;27.17;;;13.00;;
85175;SDS011;75548;42.444;27.488;2024-01-15T03:14:53;17.35;;;10.77;;
85175;SDS011;75548;42.444;27.488;2024-01-15T03:18:19;21.55;;;11.55;;
85175;SDS011;75548;42.444;27.488;2024-01-15T03:21:44;21.35;;;10.05;;
85175;SDS011;75548;42.444;27.488;2024-01-15T03:25:10;28.52;;;15.50;;
85175;SDS011;75548;42.444;27.488;2024-01-15T03:28:35;29.88;;;12.82;;
85175;SDS011;75548;42.444;27.488;2024-01-15T03:32:01;22.80;;;13.27;;
85175;SDS011;75548;42.444;27.488;2024-01-15T03:35:26;27.42;;;12.90;;
85175;SDS011;75548;42.444;27.488;2024-01-15T03:38:51;22.50;;;13.15;;
85175;SDS011;75548;42.444;27.488;2024-01-15T03:42:17;20.48;;;11.88;;
85175;SDS011;75548;42.444;27.488;2024-01-15T03:45:42;27.70;;;14.25;;
85175;SDS011;75548;42.444;27.488;2024-01-15T03:49:08;31.70;;;19.20;;
85175;SDS011;75548;42.444;27.488;2024-01-15T03:52:33;32.13;;;15.73;;
85175;SDS011;75548;42.444;27.488;2024-01-15T03:55:59;30.67;;;15.05;;
85175;SDS011;75548;42.444;27.488;2024-01-15T03:59:24;19.58;;;11.50;;
85175;SDS011;75548;42.444;27.488;2024-01-15T04:02:49;26.92;;;12.23;;
85175;SDS011;75548;42.444;27.488;2024-01-15T04:06:15;23.05;;;11.25;;
85175;SDS011;75548;42.444;27.488;2024-01-15T04:09:40;22.88;;;10.95;;
85175;SDS011;75548;42.444;27.488;2024-01-15T04:13:06;23.85;;;12.93;;
85175;SDS011;75548;42.444;27.488;2024-01-15T04:16:31;25.00;;;12.05;;
85175;SDS011;75548;42.444;27.488;2024-01-15T04:19:57;21.50;;;10.43;;
85175;SDS011;75548;42.444;27.488;2024-01-15T04:22:22;26.83;;;11.63;;
85175;SDS011;75548;42.444;27.488;2024-01-15T04:24:48;23.73;;;13.32;;
85175;SDS011;75548;42.444;27.488;2024-01-15T04:27:14;28.35;;;12.68;;
85175;SDS011;75548;42.444;27.488;2024-01-15T04:29:40;24.08;;;12.45;;
85175;SDS011;75548;42.444;27.488;2024-01-15T04:32:05;22.90;;;13.07;;
85175;SDS011;75548;42.444;27.488;2024-01-15T04:34:31;30.08;;;14.65;;
85175;SDS011;75548;42.444;27.488;2024-01-15T04:36:57;27.00;;;12.68;;
85175;SDS011;75548;42.444;27.488;2024-01-15T04:39:23;30.52;;;18.17;;
85175;SDS011;75548;42.444;27.488;2024-01-15T04:41:49;41.45;;;22.42;;
85175;SDS011;75548;42.444;27.488;2024-01-15T04:44:14;28.23;;;16.92;;
85175;SDS011;75548;42.444;27.488;2024-01-15T04:46:40;25.10;;;14.77;;
85175;SDS011;75548;42.444;27.488;2024-01-15T04:50:06;28.45;;;12.02;;
85175;SDS011;75548;42.444;27.488;2024-01-15T04:53:31;22.50;;;12.35;;
85175;SDS011;75548;42.444;27.488;2024-01-15T04:56:56;20.52;;;10.00;;
85175;SDS011;75548;42.444;27.488;2024-01-15T05:00:22;25.75;;;11.68;;
85175;SDS011;75548;42.444;27.488;2024-01-15T05:03:47;33.67;;;17.85;;
85175;SDS011;75548;42.444;27.488;2024-01-15T05:07:13;21.48;;;12.57;;
85175;SDS011;75548;42.444;27.488;2024-01-15T05:10:38;22.75;;;11.93;;
85175;SDS011;75548;42.444;27.488;2024-01-15T05:14:04;23.90;;;12.13;;
85175;SDS011;75548;42.444;27.488;2024-01-15T05:17:29;18.73;;;9.00;;
85175;SDS011;75548;42.444;27.488;2024-01-15T05:20:55;18.73;;;9.40;;
85175;SDS011;75548;42.444;27.488;2024-01-15T05:24:20;14.32;;;10.25;;
85175;SDS011;75548;42.444;27.488;2024-01-15T05:27:46;22.80;;;13.27;;
85175;SDS011;75548;42.444;27.488;2024-01-15T05:31:11;25.58;;;12.40;;
85175;SDS011;75548;42.444;27.488;2024-01-15T05:34:37;14.85;;;9.05;;
85175;SDS011;75548;42.444;27.488;2024-01-15T05:38:02;30.85;;;14.15;;
85175;SDS011;75548;42.444;27.488;2024-01-15T05:41:27;23.75;;;11.50;;
85175;SDS011;75548;42.444;27.488;2024-01-15T05:44:53;21.40;;;9.88;;
85175;SDS011;75548;42.444;27.488;2024-01-15T05:48:18;21.17;;;10.75;;
85175;SDS011;75548;42.444;27.488;2024-01-15T05:51:44;39.80;;;23.50;;
85175;SDS011;75548;42.444;27.488;2024-01-15T05:55:09;17.45;;;8.95;;
85175;SDS011;75548;42.444;27.488;2024-01-15T05:58:35;17.70;;;8.80;;
85175;SDS011;75548;42.444;27.488;2024-01-15T06:02:00;25.20;;;11.05;;
85175;SDS011;75548;42.444;27.488;2024-01-15T06:05:25;27.67;;;12.10;;
85175;SDS011;75548;42.444;27.488;2024-01-15T06:08:51;22.20;;;11.35;;
85175;SDS011;75548;42.444;27.488;2024-01-15T06:12:16;17.40;;;11.32;;
85175;SDS011;75548;42.444;27.488;2024-01-15T06:15:42;24.25;;;11.48;;
85175;SDS011;75548;42.444;27.488;2024-01-15T06:19:07;14.98;;;7.80;;
85175;SDS011;75548;42.444;27.488;2024-01-15T06:22:33;22.10;;;11.38;;
85175;SDS011;75548;42.444;27.488;2024-01-15T06:25:58;19.20;;;9.50;;
85175;SDS011;75548;42.444;27.488;2024-01-15T06:29:25;26.67;;;13.05;;
85175;SDS011;75548;42.444;27.488;2024-01-15T06:32:52;17.58;;;9.98;;
85175;SDS011;75548;42.444;27.488;2024-01-15T06:36:17;16.45;;;8.25;;
85175;SDS011;75548;42.444;27.488;2024-01-15T06:39:43;23.13;;;11.98;;
85175;SDS011;75548;42.444;27.488;2024-01-15T06:43:08;20.45;;;10.77;;
85175;SDS011;75548;42.444;27.488;2024-01-15T06:46:34;15.10;;;8.60;;
85175;SDS011;75548;42.444;27.488;2024-01-15T06:49:59;28.17;;;16.60;;
85175;SDS011;75548;42.444;27.488;2024-01-15T06:53:24;22.70;;;12.65;;
85175;SDS011;75548;42.444;27.488;2024-01-15T06:56:50;20.17;;;9.77;;
85175;SDS011;75548;42.444;27.488;2024-01-15T07:00:16;17.17;;;8.98;;
85175;SDS011;75548;42.444;27.488;2024-01-15T07:03:41;14.30;;;7.32;;
85175;SDS011;75548;42.444;27.488;2024-01-15T07:07:06;20.73;;;11.02;;
85175;SDS011;75548;42.444;27.488;2024-01-15T07:10:32;22.38;;;10.80;;
85175;SDS011;75548;42.444;27.488;2024-01-15T07:13:57;21.02;;;13.18;;
85175;SDS011;75548;42.444;27.488;2024-01-15T07:17:23;22.52;;;11.82;;
85175;SDS011;75548;42.444;27.488;2024-01-15T07:20:48;15.98;;;9.75;;
85175;SDS011;75548;42.444;27.488;2024-01-15T07:24:14;23.55;;;11.18;;
85175;SDS011;75548;42.444;27.488;2024-01-15T07:27:39;27.42;;;13.85;;
85175;SDS011;75548;42.444;27.488;2024-01-15T07:31:05;11.82;;;8.68;;
85175;SDS011;75548;42.444;27.488;2024-01-15T07:34:30;20.40;;;12.43;;
85175;SDS011;75548;42.444;27.488;2024-01-15T07:37:56;22.95;;;12.88;;
85175;SDS011;75548;42.444;27.488;2024-01-15T07:41:21;20.80;;;12.20;;
85175;SDS011;75548;42.444;27.488;2024-01-15T07:44:46;22.48;;;11.82;;
85175;SDS011;75548;42.444;27.488;2024-01-15T07:48:12;21.92;;;11.05;;
85175;SDS011;75548;42.444;27.488;2024-01-15T07:51:37;23.30;;;10.63;;
85175;SDS011;75548;42.444;27.488;2024-01-15T07:55:03;21.65;;;10.52;;
85175;SDS011;75548;42.444;27.488;2024-01-15T07:58:28;23.70;;;14.05;;
85175;SDS011;75548;42.444;27.488;2024-01-15T08:01:54;29.02;;;14.48;;
85175;SDS011;75548;42.444;27.488;2024-01-15T08:05:19;24.63;;;13.30;;
85175;SDS011;75548;42.444;27.488;2024-01-15T08:08:45;22.90;;;12.00;;
85175;SDS011;75548;42.444;27.488;2024-01-15T08:12:10;18.80;;;11.13;;
85175;SDS011;75548;42.444;27.488;2024-01-15T08:15:35;19.25;;;11.18;;
85175;SDS011;75548;42.444;27.488;2024-01-15T08:19:01;20.67;;;10.60;;
85175;SDS011;75548;42.444;27.488;2024-01-15T08:22:26;24.25;;;13.68;;
85175;SDS011;75548;42.444;27.488;2024-01-15T08:25:52;29.73;;;14.40;;
85175;SDS011;75548;42.444;27.488;2024-01-15T08:29:17;24.50;;;12.10;;
85175;SDS011;75548;42.444;27.488;2024-01-15T08:32:43;23.05;;;11.13;;
85175;SDS011;75548;42.444;27.488;2024-01-15T08:36:11;24.25;;;11.70;;
85175;SDS011;75548;42.444;27.488;2024-01-15T08:39:36;27.23;;;11.77;;
85175;SDS011;75548;42.444;27.488;2024-01-15T08:43:02;39.45;;;14.43;;
85175;SDS011;75548;42.444;27.488;2024-01-15T08:46:27;29.60;;;14.27;;
85175;SDS011;75548;42.444;27.488;2024-01-15T08:49:53;23.52;;;13.27;;
85175;SDS011;75548;42.444;27.488;2024-01-15T08:53:18;25.85;;;14.15;;
85175;SDS011;75548;42.444;27.488;2024-01-15T08:56:44;24.25;;;12.23;;
85175;SDS011;75548;42.444;27.488;2024-01-15T09:00:09;25.48;;;13.05;;
85175;SDS011;75548;42.444;27.488;2024-01-15T09:03:35;27.48;;;14.45;;
85175;SDS011;75548;42.444;27.488;2024-01-15T09:07:00;28.77;;;14.00;;
85175;SDS011;75548;42.444;27.488;2024-01-15T09:10:26;24.70;;;12.05;;
85175;SDS011;75548;42.444;27.488;2024-01-15T09:13:51;29.48;;;14.38;;
85175;SDS011;75548;42.444;27.488;2024-01-15T09:17:17;31.25;;;13.95;;
85175;SDS011;75548;42.444;27.488;2024-01-15T09:20:42;26.30;;;13.82;;
85175;SDS011;75548;42.444;27.488;2024-01-15T09:24:08;32.88;;;16.42;;
85175;SDS011;75548;42.444;27.488;2024-01-15T09:27:33;44.72;;;22.02;;
85175;SDS011;75548;42.444;27.488;2024-01-15T09:30:59;42.53;;;21.00;;
85175;SDS011;75548;42.444;27.488;2024-01-15T09:34:24;36.95;;;17.20;;
85175;SDS011;75548;42.444;27.488;2024-01-15T09:37:52;33.70;;;17.05;;
85175;SDS011;75548;42.444;27.488;2024-01-15T09:41:18;36.70;;;17.80;;
85175;SDS011;75548;42.444;27.488;2024-01-15T09:44:46;35.67;;;17.20;;
85175;SDS011;75548;42.444;27.488;2024-01-15T09:48:08;34.13;;;17.80;;
85175;SDS011;75548;42.444;27.488;2024-01-15T09:51:34;36.28;;;19.38;;
85175;SDS011;75548;42.444;27.488;2024-01-15T09:54:59;32.67;;;17.92;;
85175;SDS011;75548;42.444;27.488;2024-01-15T09:58:25;31.05;;;16.73;;
85175;SDS011;75548;42.444;27.488;2024-01-15T10:01:50;39.90;;;18.25;;
85175;SDS011;75548;42.444;27.488;2024-01-15T10:05:16;31.13;;;17.58;;
85175;SDS011;75548;42.444;27.488;2024-01-15T10:08:41;29.80;;;16.35;;
85175;SDS011;75548;42.444;27.488;2024-01-15T10:12:07;36.83;;;17.33;;
85175;SDS011;75548;42.444;27.488;2024-01-15T10:15:35;35.40;;;17.45;;
85175;SDS011;75548;42.444;27.488;2024-01-15T10:19:00;34.05;;;17.50;;
85175;SDS011;75548;42.444;27.488;2024-01-15T10:22:25;32.88;;;17.33;;
85175;SDS011;75548;42.444;27.488;2024-01-15T10:25:51;37.50;;;18.08;;
85175;SDS011;75548;42.444;27.488;2024-01-15T10:29:16;32.60;;;19.38;;
85175;SDS011;75548;42.444;27.488;2024-01-15T10:32:42;33.90;;;18.25;;
85175;SDS011;75548;42.444;27.488;2024-01-15T10:35:32;46.03;;;21.50;;
85175;SDS011;75548;42.444;27.488;2024-01-15T10:38:59;32.15;;;18.52;;
85175;SDS011;75548;42.444;27.488;2024-01-15T10:42:25;38.13;;;19.05;;
85175;SDS011;75548;42.444;27.488;2024-01-15T10:45:51;45.97;;;24.20;;
85175;SDS011;75548;42.444;27.488;2024-01-15T10:49:16;34.38;;;19.30;;
85175;SDS011;75548;42.444;27.488;2024-01-15T10:52:41;43.97;;;22.02;;
85175;SDS011;75548;42.444;27.488;2024-01-15T10:56:07;31.13;;;18.27;;
85175;SDS011;75548;42.444;27.488;2024-01-15T10:59:32;37.28;;;19.08;;
85175;SDS011;75548;42.444;27.488;2024-01-15T11:02:58;32.75;;;18.73;;
85175;SDS011;75548;42.444;27.488;2024-01-15T11:06:24;32.08;;;14.63;;
85175;SDS011;75548;42.444;27.488;2024-01-15T11:09:49;30.67;;;16.33;;
85175;SDS011;75548;42.444;27.488;2024-01-15T11:18:35;29.88;;;17.17;;
85175;SDS011;75548;42.444;27.488;2024-01-15T11:24:02;29.42;;;15.75;;
85175;SDS011;75548;42.444;27.488;2024-01-15T11:27:43;23.95;;;14.02;;
85175;SDS011;75548;42.444;27.488;2024-01-15T11:31:08;25.70;;;15.30;;
85175;SDS011;75548;42.444;27.488;2024-01-15T11:34:50;26.40;;;14.05;;
85175;SDS011;75548;42.444;27.488;2024-01-15T11:38:26;34.47;;;17.05;;
85175;SDS011;75548;42.444;27.488;2024-01-15T11:41:40;34.30;;;15.52;;
85175;SDS011;75548;42.444;27.488;2024-01-15T11:45:06;29.58;;;15.88;;
85175;SDS011;75548;42.444;27.488;2024-01-15T11:48:33;25.98;;;13.90;;
85175;SDS011;75548;42.444;27.488;2024-01-15T11:51:57;26.60;;;13.85;;
85175;SDS011;75548;42.444;27.488;2024-01-15T11:55:41;26.45;;;14.18;;
85175;SDS011;75548;42.444;27.488;2024-01-15T11:58:51;29.77;;;15.30;;
85175;SDS011;75548;42.444;27.488;2024-01-15T12:02:16;30.02;;;18.38;;
85175;SDS011;75548;42.444;27.488;2024-01-15T12:05:42;26.52;;;14.43;;
85175;SDS011;75548;42.444;27.488;2024-01-15T12:09:07;30.02;;;15.70;;
85175;SDS011;75548;42.444;27.488;2024-01-15T12:16:03;30.60;;;15.45;;
85175;SDS011;75548;42.444;27.488;2024-01-15T12:19:28;27.92;;;13.52;;
85175;SDS011;75548;42.444;27.488;2024-01-15T12:22:54;30.80;;;17.00;;
85175;SDS011;75548;42.444;27.488;2024-01-15T12:26:20;25.95;;;14.63;;
85175;SDS011;75548;42.444;27.488;2024-01-15T12:29:45;23.63;;;13.05;;
85175;SDS011;75548;42.444;27.488;2024-01-15T12:33:11;29.77;;;14.50;;
85175;SDS011;75548;42.444;27.488;2024-01-15T12:36:36;29.70;;;13.85;;
85175;SDS011;75548;42.444;27.488;2024-01-15T12:40:02;24.83;;;13.95;;
85175;SDS011;75548;42.444;27.488;2024-01-15T12:43:27;26.80;;;15.10;;
85175;SDS011;75548;42.444;27.488;2024-01-15T12:46:53;27.52;;;15.93;;
85175;SDS011;75548;42.444;27.488;2024-01-15T12:50:18;29.58;;;15.18;;
85175;SDS011;75548;42.444;27.488;2024-01-15T12:53:44;20.23;;;11.98;;
85175;SDS011;75548;42.444;27.488;2024-01-15T12:57:09;27.95;;;13.93;;
85175;SDS011;75548;42.444;27.488;2024-01-15T13:00:34;23.92;;;12.75;;
85175;SDS011;75548;42.444;27.488;2024-01-15T13:04:00;28.13;;;14.45;;
85175;SDS011;75548;42.444;27.488;2024-01-15T13:07:26;25.42;;;13.32;;
85175;SDS011;75548;42.444;27.488;2024-01-15T13:10:51;30.60;;;17.10;;
85175;SDS011;75548;42.444;27.488;2024-01-15T13:14:16;27.27;;;15.25;;
85175;SDS011;75548;42.444;27.488;2024-01-15T13:17:42;28.08;;;14.93;;
85175;SDS011;75548;42.444;27.488;2024-01-15T13:21:08;24.90;;;13.10;;
85175;SDS011;75548;42.444;27.488;2024-01-15T13:24:33;26.35;;;13.05;;
85175;SDS011;75548;42.444;27.488;2024-01-15T13:27:59;21.95;;;13.48;;
85175;SDS011;75548;42.444;27.488;2024-01-15T13:31:24;25.85;;;13.98;;
85175;SDS011;75548;42.444;27.488;2024-01-15T13:34:50;28.05;;;14.90;;
85175;SDS011;75548;42.444;27.488;2024-01-15T13:38:15;26.50;;;13.90;;
85175;SDS011;75548;42.444;27.488;2024-01-15T13:41:43;25.48;;;13.50;;
85175;SDS011;75548;42.444;27.488;2024-01-15T13:45:09;28.95;;;16.58;;
85175;SDS011;75548;42.444;27.488;2024-01-15T13:48:34;30.60;;;20.20;;
85175;SDS011;75548;42.444;27.488;2024-01-15T13:52:00;34.15;;;19.85;;
85175;SDS011;75548;42.444;27.488;2024-01-15T13:55:25;34.63;;;19.27;;
85175;SDS011;75548;42.444;27.488;2024-01-15T13:58:51;36.95;;;20.40;;
85175;SDS011;75548;42.444;27.488;2024-01-15T14:02:16;29.23;;;15.88;;
85175;SDS011;75548;42.444;27.488;2024-01-15T14:05:42;33.65;;;15.73;;
85175;SDS011;75548;42.444;27.488;2024-01-15T14:09:08;31.33;;;14.52;;
85175;SDS011;75548;42.444;27.488;2024-01-15T14:12:33;27.58;;;13.48;;
85175;SDS011;75548;42.444;27.488;2024-01-15T14:15:58;30.20;;;15.55;;
85175;SDS011;75548;42.444;27.488;2024-01-15T14:19:24;29.98;;;15.30;;
85175;SDS011;75548;42.444;27.488;2024-01-15T14:22:50;25.92;;;15.40;;
85175;SDS011;75548;42.444;27.488;2024-01-15T14:26:15;26.88;;;14.38;;
85175;SDS011;75548;42.444;27.488;2024-01-15T14:29:40;25.88;;;14.10;;
85175;SDS011;75548;42.444;27.488;2024-01-15T14:33:06;25.38;;;14.30;;
85175;SDS011;75548;42.444;27.488;2024-01-15T14:36:31;25.92;;;12.27;;
85175;SDS011;75548;42.444;27.488;2024-01-15T14:39:57;27.85;;;14.48;;
85175;SDS011;75548;42.444;27.488;2024-01-15T14:43:22;40.47;;;22.65;;
85175;SDS011;75548;42.444;27.488;2024-01-15T14:46:48;43.80;;;24.77;;
85175;SDS011;75548;42.444;27.488;2024-01-15T14:50:13;45.08;;;23.42;;
85175;SDS011;75548;42.444;27.488;2024-01-15T14:53:39;44.45;;;23.55;;
85175;SDS011;75548;42.444;27.488;2024-01-15T14:57:04;39.13;;;21.90;;
85175;SDS011;75548;42.444;27.488;2024-01-15T15:00:30;48.17;;;24.55;;
85175;SDS011;75548;42.444;27.488;2024-01-15T15:03:55;45.00;;;26.52;;
85175;SDS011;75548;42.444;27.488;2024-01-15T15:07:21;62.90;;;37.38;;
85175;SDS011;75548;42.444;27.488;2024-01-15T15:10:46;42.55;;;23.73;;
85175;SDS011;75548;42.444;27.488;2024-01-15T15:14:12;30.67;;;16.83;;
85175;SDS011;75548;42.444;27.488;2024-01-15T15:17:37;32.03;;;17.10;;
85175;SDS011;75548;42.444;27.488;2024-01-15T15:21:02;34.08;;;17.85;;
85175;SDS011;75548;42.444;27.488;2024-01-15T15:24:28;34.03;;;17.50;;
85175;SDS011;75548;42.444;27.488;2024-01-15T15:27:53;35.67;;;17.48;;
85175;SDS011;75548;42.444;27.488;2024-01-15T15:31:22;31.38;;;16.38;;
85175;SDS011;75548;42.444;27.488;2024-01-15T15:34:47;34.03;;;17.65;;
85175;SDS011;75548;42.444;27.488;2024-01-15T15:38:13;29.65;;;15.98;;
85175;SDS011;75548;42.444;27.488;2024-01-15T15:41:38;35.85;;;18.70;;
85175;SDS011;75548;42.444;27.488;2024-01-15T15:45:04;73.38;;;34.28;;
85175;SDS011;75548;42.444;27.488;2024-01-15T15:48:30;55.78;;;24.67;;
85175;SDS011;75548;42.444;27.488;2024-01-15T15:51:55;40.15;;;21.00;;
85175;SDS011;75548;42.444;27.488;2024-01-15T15:55:35;33.75;;;16.92;;
85175;SDS011;75548;42.444;27.488;2024-01-15T15:59:01;31.75;;;16.48;;
85175;SDS011;75548;42.444;27.488;2024-01-15T16:02:26;36.80;;;16.95;;
85175;SDS011;75548;42.444;27.488;2024-01-15T16:05:52;86.00;;;28.35;;
85175;SDS011;75548;42.444;27.488;2024-01-15T16:09:17;57.53;;;24.60;;
85175;SDS011;75548;42.444;27.488;2024-01-15T16:12:43;48.80;;;22.30;;
85175;SDS011;75548;42.444;27.488;2024-01-15T16:16:08;68.43;;;28.20;;
85175;SDS011;75548;42.444;27.488;2024-01-15T16:19:34;40.45;;;19.75;;
85175;SDS011;75548;42.444;27.488;2024-01-15T16:22:59;34.10;;;18.55;;
85175;SDS011;75548;42.444;27.488;2024-01-15T16:26:25;34.65;;;16.30;;
85175;SDS011;75548;42.444;27.488;2024-01-15T16:29:50;30.73;;;14.80;;
85175;SDS011;75548;42.444;27.488;2024-01-15T16:33:16;32.67;;;15.10;;
85175;SDS011;75548;42.444;27.488;2024-01-15T16:36:41;30.27;;;14.60;;
85175;SDS011;75548;42.444;27.488;2024-01-15T16:40:07;25.10;;;14.40;;
85175;SDS011;75548;42.444;27.488;2024-01-15T16:43:32;28.92;;;15.88;;
85175;SDS011;75548;42.444;27.488;2024-01-15T16:46:58;29.23;;;16.40;;
85175;SDS011;75548;42.444;27.488;2024-01-15T16:50:23;29.25;;;16.00;;
85175;SDS011;75548;42.444;27.488;2024-01-15T16:53:49;29.95;;;16.42;;
85175;SDS011;75548;42.444;27.488;2024-01-15T16:57:14;27.38;;;14.90;;
85175;SDS011;75548;42.444;27.488;2024-01-15T17:00:40;25.65;;;14.55;;
85175;SDS011;75548;42.444;27.488;2024-01-15T17:04:05;29.10;;;16.77;;
85175;SDS011;75548;42.444;27.488;2024-01-15T17:07:31;29.05;;;16.48;;
85175;SDS011;75548;42.444;27.488;2024-01-15T17:10:56;30.02;;;15.60;;
85175;SDS011;75548;42.444;27.488;2024-01-15T17:14:22;29.42;;;15.43;;
85175;SDS011;75548;42.444;27.488;2024-01-15T17:17:47;35.20;;;18.98;;
85175;SDS011;75548;42.444;27.488;2024-01-15T17:21:13;52.30;;;33.88;;
85175;SDS011;75548;42.444;27.488;2024-01-15T17:24:38;39.55;;;23.52;;
85175;SDS011;75548;42.444;27.488;2024-01-15T17:28:04;32.05;;;18.77;;
85175;SDS011;75548;42.444;27.488;2024-01-15T17:31:29;27.33;;;14.93;;
85175;SDS011;75548;42.444;27.488;2024-01-15T17:34:55;30.65;;;16.63;;
85175;SDS011;75548;42.444;27.488;2024-01-15T17:38:20;25.25;;;14.13;;
85175;SDS011;75548;42.444;27.488;2024-01-15T17:41:46;29.70;;;16.48;;
85175;SDS011;75548;42.444;27.488;2024-01-15T17:45:11;44.15;;;20.75;;
85175;SDS011;75548;42.444;27.488;2024-01-15T17:48:37;41.58;;;23.38;;
85175;SDS011;75548;42.444;27.488;2024-01-15T17:52:03;34.65;;;19.60;;
85175;SDS011;75548;42.444;27.488;2024-01-15T17:55:28;35.55;;;18.75;;
85175;SDS011;75548;42.444;27.488;2024-01-15T17:58:53;30.65;;;16.27;;
85175;SDS011;75548;42.444;27.488;2024-01-15T18:02:18;30.02;;;15.63;;
85175;SDS011;75548;42.444;27.488;2024-01-15T18:05:44;35.78;;;21.38;;
85175;SDS011;75548;42.444;27.488;2024-01-15T18:09:10;43.60;;;26.33;;
85175;SDS011;75548;42.444;27.488;2024-01-15T18:12:36;33.85;;;19.58;;
85175;SDS011;75548;42.444;27.488;2024-01-15T18:16:01;30.00;;;17.02;;
85175;SDS011;75548;42.444;27.488;2024-01-15T18:19:26;35.05;;;16.63;;
85175;SDS011;75548;42.444;27.488;2024-01-15T18:22:52;29.50;;;15.73;;
85175;SDS011;75548;42.444;27.488;2024-01-15T18:26:17;29.55;;;16.35;;
85175;SDS011;75548;42.444;27.488;2024-01-15T18:29:43;33.50;;;19.58;;
85175;SDS011;75548;42.444;27.488;2024-01-15T18:33:08;38.22;;;21.15;;
85175;SDS011;75548;42.444;27.488;2024-01-15T18:36:34;39.40;;;22.35;;
85175;SDS011;75548;42.444;27.488;2024-01-15T18:39:59;41.10;;;21.15;;
85175;SDS011;75548;42.444;27.488;2024-01-15T18:43:24;46.33;;;21.23;;
85175;SDS011;75548;42.444;27.488;2024-01-15T18:46:50;40.13;;;20.52;;
85175;SDS011;75548;42.444;27.488;2024-01-15T18:50:15;39.28;;;26.30;;
85175;SDS011;75548;42.444;27.488;2024-01-15T18:53:41;36.03;;;20.33;;
85175;SDS011;75548;42.444;27.488;2024-01-15T18:56:11;39.08;;;22.30;;
85175;SDS011;75548;42.444;27.488;2024-01-15T18:59:36;33.58;;;19.52;;
85175;SDS011;75548;42.444;27.488;2024-01-15T19:03:02;31.02;;;14.95;;
85175;SDS011;75548;42.444;27.488;2024-01-15T19:05:45;28.85;;;15.77;;
85175;SDS011;75548;42.444;27.488;2024-01-15T19:09:11;17.38;;;10.60;;
85175;SDS011;75548;42.444;27.488;2024-01-15T19:12:36;23.42;;;12.77;;
85175;SDS011;75548;42.444;27.488;2024-01-15T19:15:02;30.33;;;14.95;;
85175;SDS011;75548;42.444;27.488;2024-01-15T19:17:28;28.60;;;15.15;;
85175;SDS011;75548;42.444;27.488;2024-01-15T19:19:54;27.60;;;14.82;;
85175;SDS011;75548;42.444;27.488;2024-01-15T19:22:20;25.63;;;14.07;;
85175;SDS011;75548;42.444;27.488;2024-01-15T19:24:45;27.25;;;12.63;;
85175;SDS011;75548;42.444;27.488;2024-01-15T19:27:12;27.05;;;16.05;;